Time;durP1;ratioP1;P1;durP2;ratioP2;P2;SDS_P1;SDS_P2;PMS_P1;PMS_P2;Temp;Humidity;BMP_temperature;BMP_pressure;BME280_temperature;BME280_humidity;BME280_pressure;Samples;Min_cycle;Max_cycle;Signal;HPM_P1;HPM_P2
2022/06/03 04:02:12;;;;;;;2.90;2.58;;;;;;;17.05;70.93;100911.72;5958712;27;20551;-87
2022/06/03 04:05:59;;;;;;;3.00;2.70;;;;;;;17.15;70.47;100909.44;5389736;33;35324;-86
2022/06/03 04:09:27;;;;;;;3.33;3.00;;;;;;;17.29;71.14;100906.75;5379612;33;34488;-87
2022/06/03 04:13:15;;;;;;;3.28;2.80;;;;;;;17.42;71.77;100912.16;5362349;33;34328;-91
2022/06/03 04:16:39;;;;;;;3.58;3.28;;;;;;;17.58;69.53;100916.31;5353652;33;32389;-87
2022/06/03 04:20:16;;;;;;;4.25;2.55;;;;;;;17.81;68.94;100918.63;5364918;33;33601;-87
2022/06/03 04:24:04;;;;;;;2.90;2.60;;;;;;;17.98;68.22;100928.03;5373788;33;34081;-87
2022/06/03 04:27:44;;;;;;;2.83;2.62;;;;;;;18.10;67.89;100939.13;5378959;33;34558;-87
2022/06/03 04:31:09;;;;;;;2.62;2.42;;;;;;;18.22;68.02;100923.78;5381365;33;34384;-87
2022/06/03 04:34:30;;;;;;;3.00;2.70;;;;;;;18.32;66.92;100926.88;5379630;33;34125;-87
2022/06/03 04:38:10;;;;;;;4.00;2.55;;;;;;;18.44;66.51;100926.22;5376461;33;34139;-87
2022/06/03 04:41:31;;;;;;;3.08;2.70;;;;;;;18.64;66.23;100929.69;5381160;33;35338;-87
2022/06/03 04:45:13;;;;;;;3.40;2.70;;;;;;;18.84;65.50;100939.69;5379376;33;34454;-87
2022/06/03 04:48:56;;;;;;;2.75;2.55;;;;;;;18.93;65.30;100933.75;5371372;33;34497;-90
2022/06/03 04:52:17;;;;;;;2.50;2.30;;;;;;;19.01;64.91;100938.09;5361326;33;34175;-87
2022/06/03 04:55:41;;;;;;;2.25;2.12;;;;;;;19.12;64.17;100942.84;5360624;33;34624;-87
2022/06/03 04:59:11;;;;;;;2.65;2.45;;;;;;;19.37;63.89;100933.88;5360863;33;33898;-87
2022/06/03 05:02:42;;;;;;;2.75;2.55;;;;;;;19.39;64.11;100929.88;5360217;33;35397;-87
2022/06/03 05:06:15;;;;;;;2.83;2.62;;;;;;;19.38;64.36;100924.63;5384202;33;33934;-86
2022/06/03 05:09:48;;;;;;;2.75;2.53;;;;;;;19.42;64.46;100934.03;5382471;33;34530;-90
2022/06/03 05:13:06;;;;;;;2.72;2.53;;;;;;;19.52;63.43;100931.66;5382556;33;34340;-87
2022/06/03 05:16:34;;;;;;;3.00;2.70;;;;;;;19.73;61.81;100937.78;5382400;33;33783;-87
2022/06/03 05:19:57;;;;;;;3.22;2.67;;;;;;;19.94;62.98;100942.81;5383130;33;34034;-87
2022/06/03 05:23:27;;;;;;;3.67;2.80;;;;;;;19.97;61.06;100949.75;5379715;33;33854;-87
2022/06/03 05:26:48;;;;;;;2.90;2.60;;;;;;;20.02;60.19;100944.44;5380952;33;33934;-87
2022/06/03 05:30:16;;;;;;;3.90;2.60;;;;;;;20.14;60.67;100946.19;5381181;33;34839;-86
2022/06/03 05:33:28;;;;;;;3.20;2.80;;;;;;;20.12;59.78;100959.28;5370357;33;35247;-91
2022/06/03 05:36:59;;;;;;;3.35;2.75;;;;;;;20.10;60.76;100961.38;5374189;33;34105;-87
2022/06/03 05:40:31;;;;;;;2.95;2.70;;;;;;;20.17;60.28;100964.88;5379165;33;34073;-87
2022/06/03 05:43:37;;;;;;;2.65;2.45;;;;;;;20.25;60.41;100965.66;5373712;33;34065;-87
2022/06/03 05:46:59;;;;;;;2.95;2.58;;;;;;;20.32;59.92;100964.50;5382572;33;34500;-87
2022/06/03 05:50:12;;;;;;;3.22;2.90;;;;;;;20.49;60.20;100967.47;5381172;33;34057;-87
2022/06/03 05:53:34;;;;;;;2.90;2.70;;;;;;;20.73;59.71;100968.44;5379823;33;33897;-87
2022/06/03 05:57:04;;;;;;;3.60;2.53;;;;;;;20.80;59.17;100963.72;5379668;33;34134;-87
2022/06/03 06:00:13;;;;;;;4.15;2.55;;;;;;;21.02;58.70;100975.00;5380949;33;35411;-92
2022/06/03 06:03:33;;;;;;;2.95;2.67;;;;;;;21.20;57.65;100970.53;5381668;33;34062;-88
2022/06/03 06:07:00;;;;;;;3.58;3.28;;;;;;;21.23;57.95;100970.06;5384491;33;34686;-88
2022/06/03 06:10:22;;;;;;;3.37;2.60;;;;;;;21.34;58.46;100966.50;5377640;33;34922;-87
2022/06/03 06:13:38;;;;;;;2.62;2.42;;;;;;;21.36;56.89;100969.03;5384211;33;32291;-87
2022/06/03 06:16:42;;;;;;;2.95;2.70;;;;;;;21.55;55.87;100961.59;5369961;33;32841;-87
2022/06/03 06:19:53;;;;;;;3.42;2.70;;;;;;;21.64;55.66;100957.41;5393152;33;35381;-87
2022/06/03 06:23:03;;;;;;;4.50;2.40;;;;;;;21.84;55.09;100955.16;5384434;33;33868;-87
2022/06/03 06:26:13;;;;;;;2.62;2.42;;;;;;;21.95;54.26;100958.97;5367621;33;32269;-87
2022/06/03 06:29:16;;;;;;;1.98;1.80;;;;;;;22.21;53.70;100954.12;5367625;33;34334;-87
2022/06/03 06:32:34;;;;;;;2.60;2.40;;;;;;;22.34;52.93;100953.84;5381232;33;33728;-87
2022/06/03 06:35:58;;;;;;;2.43;2.17;;;;;;;22.55;51.32;100949.59;5379896;33;34788;-87
2022/06/03 06:39:41;;;;;;;3.03;2.25;;;;;;;22.76;50.63;100945.37;5380157;33;34269;-91
2022/06/03 06:43:08;;;;;;;5.18;2.33;;;;;;;22.91;50.79;100951.16;5347961;33;34689;-87
2022/06/03 06:46:20;;;;;;;2.70;2.50;;;;;;;23.06;50.58;100945.97;5380521;33;32170;-87
2022/06/03 06:50:12;;;;;;;2.28;1.98;;;;;;;23.13;49.53;100943.06;5380892;33;34579;-87
2022/06/03 06:53:18;;;;;;;2.35;2.15;;;;;;;23.19;48.79;100949.47;5374300;33;34841;-87
2022/06/03 06:56:29;;;;;;;2.12;1.98;;;;;;;23.22;47.97;100949.81;5380534;33;33637;-87
2022/06/03 06:59:44;;;;;;;1.92;1.80;;;;;;;23.32;48.19;100946.41;5381486;33;34374;-87
2022/06/03 07:03:08;;;;;;;1.83;1.67;;;;;;;23.50;47.38;100939.84;5381214;33;34093;-87
2022/06/03 07:06:25;;;;;;;2.12;1.92;;;;;;;23.59;46.73;100937.50;5376904;33;35322;-88
2022/06/03 07:09:40;;;;;;;2.35;1.90;;;;;;;23.73;45.19;100928.69;5376439;33;34063;-86
2022/06/03 07:13:01;;;;;;;2.50;2.30;;;;;;;23.97;45.99;100929.31;5381012;33;34167;-86
2022/06/03 07:16:04;;;;;;;2.42;1.80;;;;;;;24.03;44.63;100916.47;5391031;33;34090;-85
2022/06/03 07:19:50;;;;;;;3.42;1.83;;;;;;;24.30;44.27;100926.72;5397547;33;34141;-85
2022/06/03 07:23:32;;;;;;;2.05;1.67;;;;;;;24.33;40.77;100927.03;5393191;33;34045;-85
2022/06/03 07:26:46;;;;;;;1.70;1.60;;;;;;;24.47;38.88;100935.78;5369422;33;33604;-86
2022/06/03 07:30:05;;;;;;;1.70;1.60;;;;;;;24.52;39.00;100922.09;5380649;33;34432;-90
2022/06/03 07:33:12;;;;;;;1.65;1.55;;;;;;;24.56;39.53;100914.13;5374440;33;34395;-86
2022/06/03 07:36:44;;;;;;;2.40;1.73;;;;;;;24.62;39.35;100916.69;5367430;33;34016;-86
2022/06/03 07:39:52;;;;;;;1.73;1.62;;;;;;;24.83;39.19;100906.75;5376216;33;34092;-85
2022/06/03 07:43:03;;;;;;;;;;;;;;;25.15;39.22;100907.87;5379118;33;33921;-85
2022/06/03 07:46:09;;;;;;;8.35;2.05;;;;;;;25.06;37.61;100913.81;5364811;33;34765;-85
2022/06/03 07:49:14;;;;;;;1.58;1.48;;;;;;;25.18;37.58;100913.69;5377373;33;34553;-85
2022/06/03 07:52:37;;;;;;;1.35;1.30;;;;;;;25.14;37.02;100911.72;5364657;33;32264;-85
2022/06/03 07:55:40;;;;;;;1.80;1.70;;;;;;;25.38;37.10;100915.78;5376802;33;34292;-85
2022/06/03 07:58:46;;;;;;;1.87;1.77;;;;;;;25.27;36.52;100911.28;5378102;33;34749;-86
2022/06/03 08:02:01;;;;;;;1.50;1.40;;;;;;;25.41;37.08;100904.22;5382298;33;34738;-85
2022/06/03 08:05:16;;;;;;;3.83;1.90;;;;;;;25.60;37.09;100912.13;5378061;33;33359;-85
2022/06/03 08:11:45;;;;;;;2.08;1.98;;;;;;;25.81;36.90;100907.56;5379401;33;34053;-90
2022/06/03 08:14:48;;;;;;;1.60;1.50;;;;;;;25.80;37.18;100912.25;5391218;33;35268;-88
2022/06/03 08:17:51;;;;;;;1.62;1.52;;;;;;;25.74;36.77;100910.53;5370984;33;33446;-88
2022/06/03 08:20:59;;;;;;;1.40;1.30;;;;;;;25.94;36.39;100901.59;5395788;33;35367;-86
2022/06/03 08:24:04;;;;;;;1.85;1.60;;;;;;;26.12;36.58;100903.03;5379725;33;35520;-86
2022/06/03 08:27:13;;;;;;;2.22;2.03;;;;;;;26.23;36.26;100905.59;5366428;33;33007;-86
2022/06/03 08:30:23;;;;;;;;;;;;;;;26.26;36.50;100904.22;5359493;33;32761;-85
2022/06/03 08:33:47;;;;;;;1.58;1.48;;;;;;;26.40;36.24;100902.63;5379686;33;34019;-86
2022/06/03 08:36:52;;;;;;;1.92;1.75;;;;;;;26.43;35.95;100909.53;5365709;33;34051;-85
2022/06/03 08:40:01;;;;;;;1.60;1.50;;;;;;;26.46;35.59;100897.94;5373973;33;33692;-85
2022/06/03 08:43:28;;;;;;;1.80;1.70;;;;;;;26.53;35.52;100895.81;5365676;33;32568;-86
2022/06/03 08:46:58;;;;;;;1.70;1.60;;;;;;;26.42;36.36;100894.91;5375871;33;33970;-86
2022/06/03 08:50:11;;;;;;;2.55;1.70;;;;;;;26.53;36.36;100890.28;5385426;33;34216;-85
2022/06/03 08:53:32;;;;;;;1.60;1.37;;;;;;;26.87;36.76;100878.75;5370875;33;34271;-85
2022/06/03 08:56:40;;;;;;;2.30;1.50;;;;;;;26.79;34.85;100880.09;5378159;33;34428;-85
2022/06/03 08:59:50;;;;;;;2.80;2.08;;;;;;;26.95;34.91;100878.19;5366155;33;32350;-86
2022/06/03 09:03:00;;;;;;;3.33;2.08;;;;;;;26.95;35.48;100889.25;5367078;33;32518;-85
2022/06/03 09:06:06;;;;;;;2.00;1.80;;;;;;;27.04;35.17;100881.25;5379455;33;34338;-86
2022/06/03 09:09:37;;;;;;;2.67;1.65;;;;;;;27.43;36.02;100880.72;5380138;33;34486;-86
2022/06/03 09:13:00;;;;;;;1.95;1.60;;;;;;;27.62;35.43;100880.97;5380360;33;34112;-86
2022/06/03 09:16:05;;;;;;;1.65;1.55;;;;;;;27.64;35.70;100874.03;5381432;33;33156;-85
2022/06/03 09:19:33;;;;;;;2.87;1.60;;;;;;;27.56;35.42;100869.09;5376600;33;34236;-85
2022/06/03 09:22:37;;;;;;;2.17;1.83;;;;;;;27.79;34.87;100870.44;5380640;33;34059;-85
2022/06/03 09:25:48;;;;;;;2.00;1.80;;;;;;;27.77;35.14;100876.22;5382630;33;34080;-85
2022/06/03 09:28:53;;;;;;;1.77;1.67;;;;;;;27.80;34.07;100872.91;5382259;33;34015;-85
2022/06/03 09:31:59;;;;;;;1.75;1.65;;;;;;;27.81;33.84;100869.03;5379556;33;34413;-85
2022/06/03 09:35:06;;;;;;;1.98;1.77;;;;;;;27.85;34.21;100871.22;5378586;33;34111;-85
2022/06/03 09:38:10;;;;;;;1.62;1.52;;;;;;;27.73;34.12;100865.97;5380025;33;33941;-85
2022/06/03 09:41:15;;;;;;;2.33;1.67;;;;;;;27.83;34.04;100867.94;5379753;33;34378;-85
2022/06/03 09:44:24;;;;;;;1.73;1.55;;;;;;;28.21;33.79;100867.22;5378339;33;33808;-90
2022/06/03 09:47:28;;;;;;;;;;;;;;;28.26;33.75;100875.53;5386390;33;34353;-86
2022/06/03 09:50:31;;;;;;;2.17;1.70;;;;;;;28.75;34.56;100881.37;5365254;33;33510;-86
2022/06/03 09:53:36;;;;;;;1.60;1.50;;;;;;;28.94;32.24;100869.31;5369754;33;32205;-88
2022/06/03 09:56:39;;;;;;;1.30;1.20;;;;;;;29.10;31.75;100878.34;5390552;33;34200;-88
2022/06/03 09:59:57;;;;;;;1.70;1.50;;;;;;;29.20;32.12;100876.63;5391152;33;34286;-88
2022/06/03 10:03:00;;;;;;;1.75;1.30;;;;;;;29.36;31.63;100872.59;5377918;33;33133;-87
2022/06/03 10:06:04;;;;;;;1.40;1.30;;;;;;;29.45;30.99;100873.59;5393827;33;35003;-88
2022/06/03 10:12:49;;;;;;;1.48;1.37;;;;;;;29.69;31.47;100887.56;5372462;33;32291;-88
2022/06/03 10:15:56;;;;;;;1.67;1.25;;;;;;;29.87;29.97;100882.38;5378888;33;35402;-88
2022/06/03 10:18:59;;;;;;;1.48;1.30;;;;;;;29.72;30.54;100883.34;5381009;33;34151;-87
2022/06/03 10:22:08;;;;;;;1.55;1.45;;;;;;;29.62;30.14;100875.97;5368602;33;34201;-85
2022/06/03 10:25:12;;;;;;;1.50;1.40;;;;;;;29.88;29.70;100875.72;5383845;33;33582;-87
2022/06/03 10:28:16;;;;;;;1.92;1.40;;;;;;;30.21;30.68;100882.25;5393598;33;33805;-86
2022/06/03 10:31:26;;;;;;;2.28;1.60;;;;;;;30.39;29.11;100873.16;5390384;33;35309;-86
2022/06/03 10:34:38;;;;;;;2.15;1.48;;;;;;;30.53;28.65;100880.72;5383238;33;33535;-87
2022/06/03 10:37:50;;;;;;;1.83;1.52;;;;;;;30.90;28.26;100875.19;5366817;33;32310;-87
2022/06/03 10:40:54;;;;;;;1.50;1.40;;;;;;;30.77;28.77;100872.31;5384405;33;34321;-86
2022/06/03 10:43:57;;;;;;;1.70;1.58;;;;;;;31.03;29.08;100870.00;5385837;33;36777;-86
2022/06/03 10:47:14;;;;;;;2.20;1.52;;;;;;;31.28;27.83;100855.66;5456711;27;34853;-88
2022/06/03 10:50:38;;;;;;;1.20;1.20;;;;;;;31.63;27.05;100853.38;5379679;33;32983;-89
2022/06/03 11:03:54;;;;;;;2.28;1.23;;;;;;;32.82;25.69;100839.41;5406443;27;34327;-88
2022/06/03 11:07:30;;;;;;;2.45;1.30;;;;;;;32.92;26.72;100832.75;5384082;33;34035;-88
2022/06/03 11:10:41;;;;;;;1.45;1.35;;;;;;;33.31;25.38;100826.44;5385298;33;36253;-88
2022/06/03 11:13:48;;;;;;;1.50;1.00;;;;;;;33.73;24.79;100832.59;5377728;33;34602;-88
2022/06/03 11:17:11;;;;;;;1.85;1.10;;;;;;;33.87;23.98;100826.87;5394605;27;34846;-86
2022/06/03 11:20:35;;;;;;;3.03;1.48;;;;;;;34.17;24.50;100821.56;5387878;33;33585;-87
2022/06/03 11:23:40;;;;;;;1.55;1.45;;;;;;;34.47;25.33;100817.81;5385078;33;34412;-87
2022/06/03 11:26:45;;;;;;;1.50;1.40;;;;;;;35.27;22.37;100816.59;5394948;33;34298;-86
2022/06/03 11:29:50;;;;;;;1.73;1.23;;;;;;;35.75;22.04;100812.66;5401900;33;33696;-86
2022/06/03 11:32:59;;;;;;;1.80;1.27;;;;;;;35.88;22.36;100811.56;5399428;33;34751;-86
2022/06/03 11:36:07;;;;;;;1.50;1.27;;;;;;;36.69;20.93;100798.34;5387096;33;36637;-87
2022/06/03 11:39:30;;;;;;;3.17;1.30;;;;;;;37.05;20.04;100794.03;5391161;33;33736;-87
2022/06/03 11:42:56;;;;;;;1.10;1.10;;;;;;;38.07;20.07;100793.06;5384520;33;33980;-87
2022/06/03 11:46:05;;;;;;;1.10;1.10;;;;;;;38.25;19.37;100781.53;5381805;33;33684;-87
2022/06/03 11:49:09;;;;;;;1.05;1.05;;;;;;;38.38;18.93;100774.69;5383891;33;34799;-87
2022/06/03 11:52:12;;;;;;;1.30;1.20;;;;;;;39.58;18.68;100763.47;5386140;33;34138;-88
2022/06/03 11:55:16;;;;;;;1.15;1.12;;;;;;;39.07;17.99;100767.00;5378685;33;34292;-87
2022/06/03 11:58:25;;;;;;;1.30;1.20;;;;;;;39.10;18.41;100769.09;5384712;33;33942;-87
2022/06/03 12:01:34;;;;;;;1.10;1.10;;;;;;;39.37;18.19;100758.94;5382118;33;34035;-88
2022/06/03 12:04:58;;;;;;;0.93;0.90;;;;;;;40.01;17.19;100747.59;5374815;33;34464;-88
2022/06/03 12:08:28;;;;;;;3.17;0.90;;;;;;;40.15;17.95;100745.06;5379058;33;33856;-88
2022/06/03 12:15:28;;;;;;;0.80;0.80;;;;;;;39.24;18.31;100732.84;5367993;33;33930;-88
2022/06/03 12:18:31;;;;;;;0.98;0.98;;;;;;;40.52;17.47;100722.88;5367279;33;33501;-88
2022/06/03 12:21:34;;;;;;;1.23;1.10;;;;;;;41.19;16.35;100733.03;5367141;33;33937;-86
2022/06/03 12:24:37;;;;;;;1.20;1.10;;;;;;;41.21;17.17;100710.84;5345460;33;33983;-86
2022/06/03 12:27:40;;;;;;;1.25;1.02;;;;;;;41.32;15.92;100717.50;5361365;33;34243;-86
2022/06/03 12:30:54;;;;;;;0.82;0.82;;;;;;;41.30;15.98;100716.22;5347632;33;32926;-86
2022/06/03 12:34:06;;;;;;;0.93;0.93;;;;;;;41.74;16.27;100713.69;5348985;33;34714;-86
2022/06/03 12:37:26;;;;;;;1.00;1.00;;;;;;;42.02;15.86;100704.81;5340468;33;32463;-86
2022/06/03 12:40:35;;;;;;;1.25;1.00;;;;;;;42.89;14.80;100698.16;5346498;33;35947;-86
2022/06/03 12:43:44;;;;;;;0.80;0.80;;;;;;;42.90;15.20;100694.09;5348729;33;34885;-89
2022/06/03 12:46:47;;;;;;;0.75;0.70;;;;;;;42.69;14.88;100694.69;5360667;33;33952;-90
2022/06/03 12:50:03;;;;;;;0.95;0.90;;;;;;;43.18;14.76;100699.22;5340000;33;33637;-85
2022/06/03 12:53:06;;;;;;;0.90;0.90;;;;;;;43.34;14.68;100685.56;5352546;33;34099;-86
2022/06/03 12:56:20;;;;;;;1.02;1.02;;;;;;;43.83;14.58;100677.78;5345046;33;32295;-86
2022/06/03 12:59:47;;;;;;;1.05;1.02;;;;;;;42.92;15.65;100680.38;5360601;33;34862;-86
2022/06/03 13:03:01;;;;;;;0.88;0.88;;;;;;;43.52;14.61;100674.31;5371561;33;34185;-86
2022/06/03 13:06:08;;;;;;;1.05;0.90;;;;;;;42.32;14.94;100665.19;5359544;33;127765;-86
2022/06/03 13:12:32;;;;;;;1.35;1.25;;;;;;;41.47;15.71;100670.50;5346328;33;32607;-86
2022/06/03 13:15:38;;;;;;;0.90;0.90;;;;;;;42.48;14.59;100662.12;5360429;33;69483;-86
2022/06/03 13:18:47;;;;;;;1.58;1.00;;;;;;;43.68;14.08;100652.19;5350324;33;34252;-87
2022/06/03 13:22:02;;;;;;;1.92;1.12;;;;;;;44.46;13.64;100659.34;5343990;33;34552;-87
2022/06/03 13:25:24;;;;;;;1.40;1.30;;;;;;;43.45;14.46;100657.28;5342641;33;34167;-87
2022/06/03 13:28:37;;;;;;;0.95;0.95;;;;;;;42.49;14.95;100657.28;5350556;33;35240;-91
2022/06/03 13:31:40;;;;;;;1.55;1.27;;;;;;;42.80;14.52;100647.50;5348431;33;34275;-87
2022/06/03 13:34:43;;;;;;;1.17;1.08;;;;;;;43.54;14.27;100640.75;5345972;33;33943;-87
2022/06/03 13:37:55;;;;;;;1.10;1.00;;;;;;;42.08;14.83;100643.06;5356759;33;34658;-86
2022/06/03 13:45:02;;;;;;;1.33;1.23;;;;;;;42.44;15.29;100643.47;5357674;33;34166;-86
2022/06/03 13:48:14;;;;;;;3.05;1.27;;;;;;;42.98;14.50;100630.63;5348644;33;32813;-85
2022/06/03 13:51:55;;;;;;;2.20;1.08;;;;;;;42.80;14.11;100636.16;5350043;33;34002;-86
2022/06/03 13:55:46;;;;;;;1.37;1.08;;;;;;;42.54;15.36;100629.41;5333287;33;33923;-87
2022/06/03 13:58:49;;;;;;;3.30;1.10;;;;;;;41.91;15.61;100631.13;5326869;33;35035;-87
2022/06/03 14:01:54;;;;;;;0.98;0.98;;;;;;;41.08;16.05;100624.69;5331173;33;35196;-87
2022/06/03 14:05:13;;;;;;;1.10;1.00;;;;;;;40.42;17.06;100621.91;5351652;33;33740;-86
2022/06/03 14:08:30;;;;;;;1.50;1.40;;;;;;;38.59;17.95;100616.13;5349772;33;34097;-86
2022/06/03 14:11:41;;;;;;;1.45;1.20;;;;;;;37.25;19.27;100612.59;5344797;33;33929;-86
2022/06/03 14:15:10;;;;;;;0.73;0.73;;;;;;;36.72;20.33;100620.88;5344108;33;34668;-85
2022/06/03 14:18:49;;;;;;;1.10;0.93;;;;;;;35.41;20.84;100607.19;5345441;33;33997;-88
2022/06/03 14:22:33;;;;;;;0.85;0.85;;;;;;;34.46;22.58;100605.66;5352382;33;33996;-87
2022/06/03 14:25:39;;;;;;;1.17;1.05;;;;;;;33.63;22.58;100615.06;5360241;33;33972;-87
2022/06/03 14:28:59;;;;;;;1.10;1.10;;;;;;;32.77;24.37;100610.06;5351547;33;35366;-87
2022/06/03 14:32:08;;;;;;;1.02;0.98;;;;;;;32.27;25.35;100611.88;5355557;33;34060;-87
2022/06/03 14:35:24;;;;;;;4.62;1.08;;;;;;;32.30;25.06;100600.09;5352538;33;35570;-87
2022/06/03 14:38:38;;;;;;;2.85;1.10;;;;;;;32.30;24.39;100608.47;5362199;33;33890;-87
2022/06/03 14:41:45;;;;;;;1.20;1.10;;;;;;;32.07;25.15;100601.25;5350326;33;34087;-87
2022/06/03 14:44:48;;;;;;;1.10;1.10;;;;;;;31.95;25.33;100601.00;5347066;33;34731;-87
2022/06/03 14:47:58;;;;;;;0.98;0.98;;;;;;;31.49;25.37;100594.53;5363380;33;33677;-88
2022/06/03 14:51:19;;;;;;;1.87;1.60;;;;;;;31.45;26.46;100592.69;5350603;33;34877;-87
2022/06/03 14:54:38;;;;;;;1.42;1.30;;;;;;;31.07;26.74;100590.16;5345070;33;33906;-86
2022/06/03 14:57:53;;;;;;;1.30;1.20;;;;;;;31.14;26.76;100587.75;5331528;33;33586;-87
2022/06/03 15:01:18;;;;;;;5.97;1.40;;;;;;;30.89;26.97;100583.53;5334255;33;32803;-87
2022/06/03 15:04:32;;;;;;;1.35;1.25;;;;;;;30.87;26.74;100558.03;5380682;33;33627;-88
2022/06/03 15:07:38;;;;;;;1.35;1.23;;;;;;;30.75;26.97;100555.72;5356754;33;35420;-87
2022/06/03 15:10:51;;;;;;;0.90;0.90;;;;;;;30.61;27.31;100543.78;5348493;33;34049;-87
2022/06/03 15:13:54;;;;;;;0.95;0.95;;;;;;;30.64;27.14;100551.50;5344370;33;33590;-87
2022/06/03 15:17:01;;;;;;;2.42;1.33;;;;;;;30.59;27.10;100546.88;5344860;33;33821;-87
2022/06/03 15:20:10;;;;;;;1.02;1.02;;;;;;;30.34;27.96;100556.53;5344184;33;34410;-87
2022/06/03 15:23:13;;;;;;;1.02;0.93;;;;;;;30.10;28.09;100551.09;5330347;33;32947;-87
2022/06/03 15:26:19;;;;;;;2.92;1.40;;;;;;;30.00;28.75;100556.81;5343664;33;34592;-87
2022/06/03 15:29:28;;;;;;;1.15;1.02;;;;;;;29.89;28.74;100555.34;5329486;33;34096;-86
2022/06/03 15:32:38;;;;;;;1.50;1.40;;;;;;;29.83;28.63;100560.13;5330488;33;33845;-86
2022/06/03 15:35:42;;;;;;;1.10;1.10;;;;;;;30.02;28.74;100565.66;5344566;33;34087;-86
2022/06/03 15:38:48;;;;;;;1.52;1.35;;;;;;;29.99;28.91;100561.56;5337593;33;32935;-86
2022/06/03 15:42:00;;;;;;;1.42;1.33;;;;;;;29.82;29.46;100564.06;5347032;33;34690;-86
2022/06/03 15:45:06;;;;;;;2.15;1.35;;;;;;;29.74;29.63;100562.78;5346409;33;34523;-86
2022/06/03 15:48:20;;;;;;;1.85;1.30;;;;;;;29.66;30.37;100562.63;5336166;33;32423;-86
